Airfield :
LOGIN :

Register | Disclaimer

   EN    FR    IT 

 










Legend :    VFR   Marginal VFR   IFR   Intensive IFR   Very Intensive IFR
Visi :
Ceiling :
>= 8 km
>= 3000ft
5 to 8 km
1000 to 3000 ft
1500m to 5 km
500 to 1000 ft
800 to 1500m
200 to 500 ft
< 800m
< 200 ft
Symbols :   Thunderstorms  Fog  Heavy snow  Heavy precipitations  Wind > 20 kt
SIGMETs :     Misc.  Thunderstorms  Icing  Turbulence  Mountain Waves  Volcanic Ashes







- Airport Elevation : 681 ft
- IATA code : LBA
- Download approach charts


EGNM - Leeds Bradford

CURRENT METAR :
  • 252350Z 15004KT CAVOK 06/04 Q1003

EXPIRED METARs :
  • 252320Z 17005KT CAVOK 06/04 Q1002
  • 252250Z 16004KT CAVOK 07/04 Q1002
  • 252220Z 17006KT 150V230 CAVOK 07/04 Q1002
  • 252150Z 18007KT 9999 FEW030CB 07/04 Q1002
  • 252120Z 19008KT 9999 FEW030CB 07/04 Q1001

TAF TAF EGNM
Valid from the 26 at 00:00 until the 27 at 00:00 UTC


252304Z 2600/2624 16008KT 9999 SCT025
PROB30 2602/2608 9000
TEMPO 2612/2624 7000 RA
BECMG 2614/2617 22010KT
PROB30
TEMPO 2615/2624 BKN012
BECMG 2620/2623 16012KT
ATIS : +44 113 250 9696 (x2489)
No reported NOTAMs for that airfield.



MET'MAP, your aeronautical weather chart ! - Copyright ORBIFLY December 2007 - Disclaimer

ORBIFLY MET'MAP TEAM :

Programming & Development : Alexandra Zaïnal
Concept & Development : Baudouin d'Aumeries
Co-Development & Prog : Marc-Olivier Méhu
Technical & hardware support : Manuel Goepfert

Contact : metmap@orbifly.com




SOURCES & CREDITS :

   NOAA